sensor_id;sensor_type;location;lat;lon;timestamp;pressure;altitude;pressure_sealevel;temperature;humidity
19508;BME280;40157;42.566;27.526;2023-10-31T00:00:08;101217.97;;;19.10;82.51
19508;BME280;40157;42.566;27.526;2023-10-31T00:02:17;101205.53;;;19.12;82.89
19508;BME280;40157;42.566;27.526;2023-10-31T00:04:49;101235.50;;;19.26;83.29
19508;BME280;40157;42.566;27.526;2023-10-31T00:06:57;101198.47;;;19.11;82.92
19508;BME280;40157;42.566;27.526;2023-10-31T00:08:59;101190.69;;;18.95;83.03
19508;BME280;40157;42.566;27.526;2023-10-31T00:13:29;101197.72;;;18.99;83.07
19508;BME280;40157;42.566;27.526;2023-10-31T00:18:25;101176.59;;;18.87;83.15
19508;BME280;40157;42.566;27.526;2023-10-31T00:20:27;101189.78;;;18.93;83.30
19508;BME280;40157;42.566;27.526;2023-10-31T00:22:28;101261.25;;;19.24;82.63
19508;BME280;40157;42.566;27.526;2023-10-31T00:24:31;101218.97;;;18.99;82.47
19508;BME280;40157;42.566;27.526;2023-10-31T00:26:34;101147.53;;;18.68;82.21
19508;BME280;40157;42.566;27.526;2023-10-31T00:28:44;101136.13;;;18.60;82.18
19508;BME280;40157;42.566;27.526;2023-10-31T00:31:11;101140.53;;;18.58;82.28
19508;BME280;40157;42.566;27.526;2023-10-31T00:33:16;101212.00;;;18.91;82.47
19508;BME280;40157;42.566;27.526;2023-10-31T00:35:26;101140.53;;;18.60;82.83
19508;BME280;40157;42.566;27.526;2023-10-31T00:37:27;101236.56;;;19.11;82.97
19508;BME280;40157;42.566;27.526;2023-10-31T00:39:27;101225.09;;;19.08;83.18
19508;BME280;40157;42.566;27.526;2023-10-31T00:41:30;101231.28;;;19.07;83.34
19508;BME280;40157;42.566;27.526;2023-10-31T00:43:31;101228.63;;;19.07;83.47
19508;BME280;40157;42.566;27.526;2023-10-31T00:45:31;101224.22;;;19.06;83.88
19508;BME280;40157;42.566;27.526;2023-10-31T00:47:32;101224.19;;;19.09;83.82
19508;BME280;40157;42.566;27.526;2023-10-31T00:49:32;101223.41;;;19.00;83.90
19508;BME280;40157;42.566;27.526;2023-10-31T00:51:33;101226.88;;;19.06;83.69
19508;BME280;40157;42.566;27.526;2023-10-31T00:53:33;101218.94;;;19.02;83.90
19508;BME280;40157;42.566;27.526;2023-10-31T00:55:33;101195.97;;;18.97;84.00
19508;BME280;40157;42.566;27.526;2023-10-31T00:57:34;101222.44;;;19.06;84.28
19508;BME280;40157;42.566;27.526;2023-10-31T00:59:34;101195.09;;;18.96;84.49
19508;BME280;40157;42.566;27.526;2023-10-31T01:01:35;101223.25;;;19.13;84.83
19508;BME280;40157;42.566;27.526;2023-10-31T01:03:35;101221.41;;;19.18;85.05
19508;BME280;40157;42.566;27.526;2023-10-31T01:05:36;101165.97;;;18.87;84.96
19508;BME280;40157;42.566;27.526;2023-10-31T01:07:36;101219.69;;;19.17;85.22
19508;BME280;40157;42.566;27.526;2023-10-31T01:09:37;101216.13;;;19.15;85.25
19508;BME280;40157;42.566;27.526;2023-10-31T01:11:37;101216.06;;;19.21;85.27
19508;BME280;40157;42.566;27.526;2023-10-31T01:13:38;101197.56;;;19.12;85.57
19508;BME280;40157;42.566;27.526;2023-10-31T01:15:38;101220.50;;;19.23;85.57
19508;BME280;40157;42.566;27.526;2023-10-31T01:17:39;101210.69;;;19.29;85.53
19508;BME280;40157;42.566;27.526;2023-10-31T01:19:39;101215.06;;;19.30;85.50
19508;BME280;40157;42.566;27.526;2023-10-31T01:21:40;101222.16;;;19.31;85.57
19508;BME280;40157;42.566;27.526;2023-10-31T01:23:40;101171.97;;;19.04;85.75
19508;BME280;40157;42.566;27.526;2023-10-31T01:25:40;101212.38;;;19.34;85.48
19508;BME280;40157;42.566;27.526;2023-10-31T01:27:41;101205.34;;;19.30;85.63
19508;BME280;40157;42.566;27.526;2023-10-31T01:29:42;101211.56;;;19.28;85.92
19508;BME280;40157;42.566;27.526;2023-10-31T01:31:42;101203.63;;;19.25;86.19
19508;BME280;40157;42.566;27.526;2023-10-31T01:33:43;101203.59;;;19.26;86.00
19508;BME280;40157;42.566;27.526;2023-10-31T01:35:43;101209.72;;;19.34;86.05
19508;BME280;40157;42.566;27.526;2023-10-31T01:37:44;101203.53;;;19.32;85.90
19508;BME280;40157;42.566;27.526;2023-10-31T01:39:45;101198.16;;;19.38;86.16
19508;BME280;40157;42.566;27.526;2023-10-31T01:41:45;101207.00;;;19.39;86.03
19508;BME280;40157;42.566;27.526;2023-10-31T01:43:46;101208.78;;;19.38;86.23
19508;BME280;40157;42.566;27.526;2023-10-31T01:45:47;101196.38;;;19.37;86.17
19508;BME280;40157;42.566;27.526;2023-10-31T01:47:48;101202.50;;;19.44;86.17
19508;BME280;40157;42.566;27.526;2023-10-31T01:49:51;101188.41;;;19.37;86.22
19508;BME280;40157;42.566;27.526;2023-10-31T01:51:52;101187.44;;;19.43;86.26
19508;BME280;40157;42.566;27.526;2023-10-31T01:53:53;101175.09;;;19.39;86.29
19508;BME280;40157;42.566;27.526;2023-10-31T01:55:55;101173.31;;;19.39;86.16
19508;BME280;40157;42.566;27.526;2023-10-31T01:57:56;101193.50;;;19.54;86.08
19508;BME280;40157;42.566;27.526;2023-10-31T01:59:56;101193.47;;;19.56;85.98
19508;BME280;40157;42.566;27.526;2023-10-31T02:01:57;101190.78;;;19.59;85.89
19508;BME280;40157;42.566;27.526;2023-10-31T02:03:58;101187.31;;;19.52;85.73
19508;BME280;40157;42.566;27.526;2023-10-31T02:05:59;101158.22;;;19.40;85.83
19508;BME280;40157;42.566;27.526;2023-10-31T02:07:59;101175.72;;;19.56;85.82
19508;BME280;40157;42.566;27.526;2023-10-31T02:10:00;101176.56;;;19.60;85.52
19508;BME280;40157;42.566;27.526;2023-10-31T02:12:00;101192.44;;;19.66;85.59
19508;BME280;40157;42.566;27.526;2023-10-31T02:14:01;101155.50;;;19.45;85.60
19508;BME280;40157;42.566;27.526;2023-10-31T02:16:02;101183.66;;;19.61;85.58
19508;BME280;40157;42.566;27.526;2023-10-31T02:18:02;101184.50;;;19.63;85.50
19508;BME280;40157;42.566;27.526;2023-10-31T02:20:03;101173.03;;;19.58;85.05
19508;BME280;40157;42.566;27.526;2023-10-31T02:22:04;101188.94;;;19.64;85.09
19508;BME280;40157;42.566;27.526;2023-10-31T02:24:04;101188.09;;;19.62;85.19
19508;BME280;40157;42.566;27.526;2023-10-31T02:26:05;101182.81;;;19.57;84.72
19508;BME280;40157;42.566;27.526;2023-10-31T02:28:06;101190.75;;;19.62;84.62
19508;BME280;40157;42.566;27.526;2023-10-31T02:30:07;101167.84;;;19.52;84.55
19508;BME280;40157;42.566;27.526;2023-10-31T02:32:07;101161.75;;;19.44;84.77
19508;BME280;40157;42.566;27.526;2023-10-31T02:34:08;101173.06;;;19.56;84.64
19508;BME280;40157;42.566;27.526;2023-10-31T02:36:08;101169.59;;;19.51;84.69
19508;BME280;40157;42.566;27.526;2023-10-31T02:38:08;101180.19;;;19.56;84.72
19508;BME280;40157;42.566;27.526;2023-10-31T02:40:09;101184.59;;;19.57;84.64
19508;BME280;40157;42.566;27.526;2023-10-31T02:42:10;101150.31;;;19.37;84.85
19508;BME280;40157;42.566;27.526;2023-10-31T02:44:10;101181.06;;;19.55;84.61
19508;BME280;40157;42.566;27.526;2023-10-31T02:46:11;101184.59;;;19.57;84.92
19508;BME280;40157;42.566;27.526;2023-10-31T02:48:13;101182.81;;;19.57;84.62
19508;BME280;40157;42.566;27.526;2023-10-31T02:50:14;101186.41;;;19.53;84.61
19508;BME280;40157;42.566;27.526;2023-10-31T02:52:14;101183.72;;;19.55;84.38
19508;BME280;40157;42.566;27.526;2023-10-31T02:54:15;101163.47;;;19.46;84.38
19508;BME280;40157;42.566;27.526;2023-10-31T02:56:16;101180.22;;;19.53;84.45
19508;BME280;40157;42.566;27.526;2023-10-31T02:58:16;101166.13;;;19.46;84.39
19508;BME280;40157;42.566;27.526;2023-10-31T03:00:17;101115.13;;;19.15;84.38
19508;BME280;40157;42.566;27.526;2023-10-31T03:02:18;101176.63;;;19.57;84.16
19508;BME280;40157;42.566;27.526;2023-10-31T03:04:18;101178.38;;;19.56;83.91
19508;BME280;40157;42.566;27.526;2023-10-31T03:06:19;101152.03;;;19.39;84.07
19508;BME280;40157;42.566;27.526;2023-10-31T03:08:19;101187.25;;;19.57;84.04
19508;BME280;40157;42.566;27.526;2023-10-31T03:10:21;101184.63;;;19.55;84.00
19508;BME280;40157;42.566;27.526;2023-10-31T03:12:21;101149.50;;;19.32;84.00
19508;BME280;40157;42.566;27.526;2023-10-31T03:14:22;101175.94;;;19.41;83.88
19508;BME280;40157;42.566;27.526;2023-10-31T03:16:22;101185.59;;;19.48;83.63
19508;BME280;40157;42.566;27.526;2023-10-31T03:18:23;101178.41;;;19.55;83.67
19508;BME280;40157;42.566;27.526;2023-10-31T03:20:23;101178.47;;;19.52;83.43
19508;BME280;40157;42.566;27.526;2023-10-31T03:22:24;101149.38;;;19.39;83.47
19508;BME280;40157;42.566;27.526;2023-10-31T03:24:24;101174.91;;;19.53;83.50
19508;BME280;40157;42.566;27.526;2023-10-31T03:26:24;101167.94;;;19.42;83.30
19508;BME280;40157;42.566;27.526;2023-10-31T03:28:25;101177.63;;;19.47;83.35
19508;BME280;40157;42.566;27.526;2023-10-31T03:30:25;101174.06;;;19.49;83.24
19508;BME280;40157;42.566;27.526;2023-10-31T03:32:26;101159.97;;;19.42;83.25
19508;BME280;40157;42.566;27.526;2023-10-31T03:34:26;101154.66;;;19.42;83.03
19508;BME280;40157;42.566;27.526;2023-10-31T03:36:27;101143.28;;;19.31;83.18
19508;BME280;40157;42.566;27.526;2023-10-31T03:38:27;101172.28;;;19.50;83.13
19508;BME280;40157;42.566;27.526;2023-10-31T03:40:28;101168.72;;;19.52;83.10
19508;BME280;40157;42.566;27.526;2023-10-31T03:42:29;101167.88;;;19.49;83.15
19508;BME280;40157;42.566;27.526;2023-10-31T03:44:29;101134.47;;;19.26;83.33
19508;BME280;40157;42.566;27.526;2023-10-31T03:46:29;101170.63;;;19.41;83.52
19508;BME280;40157;42.566;27.526;2023-10-31T03:48:42;101168.91;;;19.37;83.64
19508;BME280;40157;42.566;27.526;2023-10-31T03:50:42;101143.44;;;19.19;83.76
19508;BME280;40157;42.566;27.526;2023-10-31T03:52:43;101154.81;;;19.32;83.36
19508;BME280;40157;42.566;27.526;2023-10-31T03:54:43;101153.91;;;19.31;83.51
19508;BME280;40157;42.566;27.526;2023-10-31T03:56:43;101159.19;;;19.34;83.41
19508;BME280;40157;42.566;27.526;2023-10-31T03:58:44;101164.41;;;19.44;83.32
19508;BME280;40157;42.566;27.526;2023-10-31T04:00:44;101168.91;;;19.38;83.32
19508;BME280;40157;42.566;27.526;2023-10-31T04:02:45;101159.19;;;19.34;83.23
19508;BME280;40157;42.566;27.526;2023-10-31T04:04:46;101153.94;;;19.28;83.33
19508;BME280;40157;42.566;27.526;2023-10-31T04:06:46;101156.50;;;19.36;83.52
19508;BME280;40157;42.566;27.526;2023-10-31T04:08:47;101176.88;;;19.38;83.66
19508;BME280;40157;42.566;27.526;2023-10-31T04:10:47;101158.34;;;19.31;83.31
19508;BME280;40157;42.566;27.526;2023-10-31T04:12:48;101174.25;;;19.35;83.25
19508;BME280;40157;42.566;27.526;2023-10-31T04:14:48;101183.16;;;19.30;83.41
19508;BME280;40157;42.566;27.526;2023-10-31T04:16:49;101169.03;;;19.26;83.54
19508;BME280;40157;42.566;27.526;2023-10-31T04:18:49;101169.16;;;19.17;83.39
19508;BME280;40157;42.566;27.526;2023-10-31T04:20:50;101163.00;;;19.13;83.50
19508;BME280;40157;42.566;27.526;2023-10-31T04:22:50;101148.03;;;19.04;83.29
19508;BME280;40157;42.566;27.526;2023-10-31T04:24:50;101178.84;;;19.21;83.60
19508;BME280;40157;42.566;27.526;2023-10-31T04:26:51;101174.53;;;19.14;83.56
19508;BME280;40157;42.566;27.526;2023-10-31T04:28:51;101131.47;;;18.81;84.07
19508;BME280;40157;42.566;27.526;2023-10-31T04:30:52;101172.94;;;18.99;84.93
19508;BME280;40157;42.566;27.526;2023-10-31T04:32:53;101186.25;;;18.94;85.77
19508;BME280;40157;42.566;27.526;2023-10-31T04:34:53;101147.75;;;18.48;87.34
19508;BME280;40157;42.566;27.526;2023-10-31T04:36:54;101166.22;;;18.59;87.58
19508;BME280;40157;42.566;27.526;2023-10-31T04:38:54;101182.16;;;18.58;88.21
19508;BME280;40157;42.566;27.526;2023-10-31T04:40:55;101160.25;;;18.36;88.39
19508;BME280;40157;42.566;27.526;2023-10-31T04:42:55;101181.47;;;18.39;88.68
19508;BME280;40157;42.566;27.526;2023-10-31T04:44:56;101179.81;;;18.25;88.94
19508;BME280;40157;42.566;27.526;2023-10-31T04:46:56;101175.44;;;18.17;89.17
19508;BME280;40157;42.566;27.526;2023-10-31T04:48:56;101169.28;;;18.10;89.30
19508;BME280;40157;42.566;27.526;2023-10-31T04:50:58;101178.97;;;18.20;89.82
19508;BME280;40157;42.566;27.526;2023-10-31T04:52:58;101151.72;;;17.97;90.93
19508;BME280;40157;42.566;27.526;2023-10-31T04:54:59;101178.22;;;18.03;92.35
19508;BME280;40157;42.566;27.526;2023-10-31T04:56:59;101185.28;;;18.07;92.56
19508;BME280;40157;42.566;27.526;2023-10-31T04:59:03;101179.97;;;18.04;92.89
19508;BME280;40157;42.566;27.526;2023-10-31T05:01:08;101160.56;;;17.99;93.22
19508;BME280;40157;42.566;27.526;2023-10-31T05:03:08;101153.50;;;17.98;92.85
19508;BME280;40157;42.566;27.526;2023-10-31T05:05:09;101169.28;;;18.10;92.52
19508;BME280;40157;42.566;27.526;2023-10-31T05:07:09;101153.34;;;18.16;93.36
19508;BME280;40157;42.566;27.526;2023-10-31T05:09:10;101170.88;;;18.36;93.06
19508;BME280;40157;42.566;27.526;2023-10-31T05:11:10;101171.72;;;18.41;93.13
19508;BME280;40157;42.566;27.526;2023-10-31T05:13:11;101158.44;;;18.42;93.16
19508;BME280;40157;42.566;27.526;2023-10-31T05:15:11;101143.38;;;18.41;92.68
19508;BME280;40157;42.566;27.526;2023-10-31T05:17:12;101180.31;;;18.66;91.87
19508;BME280;40157;42.566;27.526;2023-10-31T05:19:12;101159.09;;;18.61;91.32
19508;BME280;40157;42.566;27.526;2023-10-31T05:21:19;101175.78;;;18.77;90.84
19508;BME280;40157;42.566;27.526;2023-10-31T05:23:20;101168.75;;;18.72;90.02
19508;BME280;40157;42.566;27.526;2023-10-31T05:25:21;101154.59;;;18.70;89.11
19508;BME280;40157;42.566;27.526;2023-10-31T05:27:21;101182.84;;;18.78;89.04
19508;BME280;40157;42.566;27.526;2023-10-31T05:29:22;101181.13;;;18.73;89.24
19508;BME280;40157;42.566;27.526;2023-10-31T05:31:23;101168.75;;;18.72;89.03
19508;BME280;40157;42.566;27.526;2023-10-31T05:33:23;101142.25;;;18.65;88.73
19508;BME280;40157;42.566;27.526;2023-10-31T05:35:23;101171.28;;;18.87;88.26
19508;BME280;40157;42.566;27.526;2023-10-31T05:37:25;101150.91;;;18.86;87.97
19508;BME280;40157;42.566;27.526;2023-10-31T05:39:25;101189.69;;;19.06;87.44
19508;BME280;40157;42.566;27.526;2023-10-31T05:41:26;101145.56;;;18.89;86.90
19508;BME280;40157;42.566;27.526;2023-10-31T05:43:27;101167.47;;;19.08;86.26
19508;BME280;40157;42.566;27.526;2023-10-31T05:45:28;101182.41;;;19.20;86.06
19508;BME280;40157;42.566;27.526;2023-10-31T05:47:29;101184.16;;;19.22;85.97
19508;BME280;40157;42.566;27.526;2023-10-31T05:49:29;101179.75;;;19.20;85.68
19508;BME280;40157;42.566;27.526;2023-10-31T05:51:30;101168.31;;;19.12;85.76
19508;BME280;40157;42.566;27.526;2023-10-31T05:53:30;101163.94;;;19.11;85.60
19508;BME280;40157;42.566;27.526;2023-10-31T05:55:34;101192.91;;;19.32;85.14
19508;BME280;40157;42.566;27.526;2023-10-31T05:57:35;101201.66;;;19.40;84.97
19508;BME280;40157;42.566;27.526;2023-10-31T05:59:36;101198.06;;;19.45;84.54
19508;BME280;40157;42.566;27.526;2023-10-31T06:01:36;101197.19;;;19.42;84.08
19508;BME280;40157;42.566;27.526;2023-10-31T06:03:37;101200.72;;;19.43;83.75
19508;BME280;40157;42.566;27.526;2023-10-31T06:05:37;101194.53;;;19.44;83.53
19508;BME280;40157;42.566;27.526;2023-10-31T06:07:38;101183.97;;;19.36;83.54
19508;BME280;40157;42.566;27.526;2023-10-31T06:09:38;101197.09;;;19.50;83.13
19508;BME280;40157;42.566;27.526;2023-10-31T06:11:41;101206.81;;;19.53;83.01
19508;BME280;40157;42.566;27.526;2023-10-31T06:13:43;101202.31;;;19.56;82.88
19508;BME280;40157;42.566;27.526;2023-10-31T06:15:43;101190.81;;;19.56;82.89
19508;BME280;40157;42.566;27.526;2023-10-31T06:17:44;101181.94;;;19.57;82.78
19508;BME280;40157;42.566;27.526;2023-10-31T06:19:45;101187.13;;;19.66;82.58
19508;BME280;40157;42.566;27.526;2023-10-31T06:21:47;101204.75;;;19.76;82.26
19508;BME280;40157;42.566;27.526;2023-10-31T06:23:48;101193.19;;;19.79;81.97
19508;BME280;40157;42.566;27.526;2023-10-31T06:25:49;101209.94;;;19.86;81.70
19508;BME280;40157;42.566;27.526;2023-10-31T06:27:49;101197.50;;;19.88;81.72
19508;BME280;40157;42.566;27.526;2023-10-31T06:29:50;101195.75;;;19.87;81.49
19508;BME280;40157;42.566;27.526;2023-10-31T06:31:50;101186.06;;;19.81;81.69
19508;BME280;40157;42.566;27.526;2023-10-31T06:33:50;101189.44;;;19.92;81.65
19508;BME280;40157;42.566;27.526;2023-10-31T06:35:51;101197.38;;;19.97;81.52
19508;BME280;40157;42.566;27.526;2023-10-31T06:37:55;101168.28;;;19.82;81.13
19508;BME280;40157;42.566;27.526;2023-10-31T06:39:59;101181.44;;;19.94;81.26
19508;BME280;40157;42.566;27.526;2023-10-31T06:42:00;101159.47;;;19.78;81.03
19508;BME280;40157;42.566;27.526;2023-10-31T06:44:00;101196.47;;;19.95;81.37
19508;BME280;40157;42.566;27.526;2023-10-31T06:46:01;101163.91;;;19.81;81.40
19508;BME280;40157;42.566;27.526;2023-10-31T06:48:03;101148.03;;;19.71;81.59
19508;BME280;40157;42.566;27.526;2023-10-31T06:50:04;101193.75;;;20.01;81.46
19508;BME280;40157;42.566;27.526;2023-10-31T06:52:05;101188.38;;;20.04;81.63
19508;BME280;40157;42.566;27.526;2023-10-31T06:54:05;101193.59;;;20.12;81.62
19508;BME280;40157;42.566;27.526;2023-10-31T06:56:06;101196.16;;;20.15;81.61
19508;BME280;40157;42.566;27.526;2023-10-31T06:58:07;101176.75;;;20.08;81.35
19508;BME280;40157;42.566;27.526;2023-10-31T07:00:08;101163.44;;;20.08;81.14
19508;BME280;40157;42.566;27.526;2023-10-31T07:02:09;101197.78;;;20.27;81.03
19508;BME280;40157;42.566;27.526;2023-10-31T07:04:09;101161.75;;;20.04;81.00
19508;BME280;40157;42.566;27.526;2023-10-31T07:06:10;101135.22;;;19.98;80.66
19508;BME280;40157;42.566;27.526;2023-10-31T07:08:10;101166.81;;;20.20;80.86
19508;BME280;40157;42.566;27.526;2023-10-31T07:10:11;101173.66;;;20.36;80.79
19508;BME280;40157;42.566;27.526;2023-10-31T07:12:11;101183.22;;;20.46;80.73
19508;BME280;40157;42.566;27.526;2023-10-31T07:14:12;101158.69;;;20.29;80.32
19508;BME280;40157;42.566;27.526;2023-10-31T07:16:13;101138.50;;;20.15;80.34
19508;BME280;40157;42.566;27.526;2023-10-31T07:18:14;101111.06;;;20.12;80.17
19508;BME280;40157;42.566;27.526;2023-10-31T07:20:15;101191.03;;;20.59;80.26
19508;BME280;40157;42.566;27.526;2023-10-31T07:22:16;101166.41;;;20.44;80.13
19508;BME280;40157;42.566;27.526;2023-10-31T07:24:16;101176.81;;;20.57;79.75
19508;BME280;40157;42.566;27.526;2023-10-31T07:26:17;101156.72;;;20.40;79.69
19508;BME280;40157;42.566;27.526;2023-10-31T07:28:17;101193.59;;;20.65;79.55
19508;BME280;40157;42.566;27.526;2023-10-31T07:30:18;101174.97;;;20.62;79.68
19508;BME280;40157;42.566;27.526;2023-10-31T07:32:19;101184.66;;;20.69;79.38
19508;BME280;40157;42.566;27.526;2023-10-31T07:34:20;101196.13;;;20.73;79.25
19508;BME280;40157;42.566;27.526;2023-10-31T07:36:20;101145.00;;;20.49;79.10
19508;BME280;40157;42.566;27.526;2023-10-31T07:38:21;101198.53;;;20.85;79.12
19508;BME280;40157;42.566;27.526;2023-10-31T07:40:21;101183.56;;;20.79;78.89
19508;BME280;40157;42.566;27.526;2023-10-31T07:42:22;101196.72;;;20.88;78.68
19508;BME280;40157;42.566;27.526;2023-10-31T07:44:22;101189.63;;;20.87;78.70
19508;BME280;40157;42.566;27.526;2023-10-31T07:46:23;101187.59;;;21.00;78.69
19508;BME280;40157;42.566;27.526;2023-10-31T07:48:23;101180.47;;;21.01;78.34
19508;BME280;40157;42.566;27.526;2023-10-31T07:50:24;101167.22;;;20.98;78.16
19508;BME280;40157;42.566;27.526;2023-10-31T07:52:24;101167.22;;;20.98;78.41
19508;BME280;40157;42.566;27.526;2023-10-31T07:54:24;101175.88;;;21.09;78.19
19508;BME280;40157;42.566;27.526;2023-10-31T07:56:25;101180.19;;;21.15;78.15
19508;BME280;40157;42.566;27.526;2023-10-31T07:58:26;101175.59;;;21.21;77.66
19508;BME280;40157;42.566;27.526;2023-10-31T08:00:26;101127.25;;;20.96;77.75
19508;BME280;40157;42.566;27.526;2023-10-31T08:02:27;101176.31;;;21.30;77.67
19508;BME280;40157;42.566;27.526;2023-10-31T08:04:27;101144.63;;;21.16;77.71
19508;BME280;40157;42.566;27.526;2023-10-31T08:06:30;101167.47;;;21.29;77.38
19508;BME280;40157;42.566;27.526;2023-10-31T08:08:31;101165.06;;;21.17;77.56
19508;BME280;40157;42.566;27.526;2023-10-31T08:10:33;101139.56;;;21.03;77.85
19508;BME280;40157;42.566;27.526;2023-10-31T08:12:34;101157.84;;;21.22;77.74
19508;BME280;40157;42.566;27.526;2023-10-31T08:14:35;101176.09;;;21.42;77.63
19508;BME280;40157;42.566;27.526;2023-10-31T08:16:36;101159.19;;;21.40;77.53
19508;BME280;40157;42.566;27.526;2023-10-31T08:18:36;101169.59;;;21.55;77.65
19508;BME280;40157;42.566;27.526;2023-10-31T08:20:36;101168.78;;;21.52;76.97
19508;BME280;40157;42.566;27.526;2023-10-31T08:22:37;101178.38;;;21.60;76.89
19508;BME280;40157;42.566;27.526;2023-10-31T08:24:37;101153.41;;;21.61;76.76
19508;BME280;40157;42.566;27.526;2023-10-31T08:26:39;101157.63;;;21.73;76.77
19508;BME280;40157;42.566;27.526;2023-10-31T08:28:40;101156.50;;;21.84;76.16
19508;BME280;40157;42.566;27.526;2023-10-31T08:30:41;101152.97;;;21.81;75.73
19508;BME280;40157;42.566;27.526;2023-10-31T08:32:41;101138.75;;;21.81;75.66
19508;BME280;40157;42.566;27.526;2023-10-31T08:34:42;101158.00;;;21.95;75.55
19508;BME280;40157;42.566;27.526;2023-10-31T08:36:42;101153.59;;;21.93;75.17
19508;BME280;40157;42.566;27.526;2023-10-31T08:38:42;101156.06;;;22.01;74.91
19508;BME280;40157;42.566;27.526;2023-10-31T08:40:43;101156.06;;;22.01;74.69
19508;BME280;40157;42.566;27.526;2023-10-31T08:42:43;101150.94;;;21.91;74.62
19508;BME280;40157;42.566;27.526;2023-10-31T08:44:44;101135.94;;;21.87;74.61
19508;BME280;40157;42.566;27.526;2023-10-31T08:46:44;101156.06;;;22.01;74.63
19508;BME280;40157;42.566;27.526;2023-10-31T08:48:45;101147.25;;;21.98;74.18
19508;BME280;40157;42.566;27.526;2023-10-31T08:50:45;101147.06;;;22.05;74.45
19508;BME280;40157;42.566;27.526;2023-10-31T08:52:46;101145.09;;;22.13;74.07
19508;BME280;40157;42.566;27.526;2023-10-31T08:54:46;101134.41;;;22.13;73.83
19508;BME280;40157;42.566;27.526;2023-10-31T08:56:47;101133.44;;;22.15;73.43
19508;BME280;40157;42.566;27.526;2023-10-31T08:58:47;101134.19;;;22.22;74.12
19508;BME280;40157;42.566;27.526;2023-10-31T09:00:47;101134.13;;;22.24;74.04
19508;BME280;40157;42.566;27.526;2023-10-31T09:02:48;101138.47;;;22.28;73.62
19508;BME280;40157;42.566;27.526;2023-10-31T09:04:48;101132.16;;;22.33;73.40
19508;BME280;40157;42.566;27.526;2023-10-31T09:06:49;101133.81;;;22.38;72.67
19508;BME280;40157;42.566;27.526;2023-10-31T09:08:49;101129.13;;;22.46;72.99
19508;BME280;40157;42.566;27.526;2023-10-31T09:10:50;101122.97;;;22.44;72.71
19508;BME280;40157;42.566;27.526;2023-10-31T09:12:50;101124.47;;;22.54;72.42
19508;BME280;40157;42.566;27.526;2023-10-31T09:14:51;101125.03;;;22.65;72.27
19508;BME280;40157;42.566;27.526;2023-10-31T09:17:03;101119.22;;;22.82;71.89
19508;BME280;40157;42.566;27.526;2023-10-31T09:19:04;101122.59;;;22.89;72.00
19508;BME280;40157;42.566;27.526;2023-10-31T09:21:04;101121.31;;;23.02;71.67
19508;BME280;40157;42.566;27.526;2023-10-31T09:23:05;101106.84;;;23.09;71.33
19508;BME280;40157;42.566;27.526;2023-10-31T09:25:06;101117.00;;;23.28;70.30
19508;BME280;40157;42.566;27.526;2023-10-31T09:27:06;101108.88;;;23.31;69.77
19508;BME280;40157;42.566;27.526;2023-10-31T09:29:07;101114.78;;;23.42;70.03
19508;BME280;40157;42.566;27.526;2023-10-31T09:31:07;101109.25;;;23.49;69.76
19508;BME280;40157;42.566;27.526;2023-10-31T09:33:09;101108.25;;;23.51;68.87
19508;BME280;40157;42.566;27.526;2023-10-31T09:35:10;101113.28;;;23.62;68.37
19508;BME280;40157;42.566;27.526;2023-10-31T09:37:10;101090.28;;;23.55;68.20
19508;BME280;40157;42.566;27.526;2023-10-31T09:39:10;101103.16;;;23.72;68.31
19508;BME280;40157;42.566;27.526;2023-10-31T09:41:12;101103.88;;;23.77;68.05
19508;BME280;40157;42.566;27.526;2023-10-31T09:43:14;101102.81;;;23.82;67.59
19508;BME280;40157;42.566;27.526;2023-10-31T09:45:15;101098.25;;;23.86;67.62
19508;BME280;40157;42.566;27.526;2023-10-31T09:47:16;101090.16;;;23.88;67.51
19508;BME280;40157;42.566;27.526;2023-10-31T09:49:17;101095.13;;;24.00;67.51
19508;BME280;40157;42.566;27.526;2023-10-31T09:51:17;101093.97;;;24.07;67.56
19508;BME280;40157;42.566;27.526;2023-10-31T09:53:18;101086.50;;;24.17;67.24
19508;BME280;40157;42.566;27.526;2023-10-31T09:55:20;101086.94;;;24.30;66.46
19508;BME280;40157;42.566;27.526;2023-10-31T09:57:20;101078.78;;;24.33;65.93
19508;BME280;40157;42.566;27.526;2023-10-31T09:59:21;101080.47;;;24.35;65.71
19508;BME280;40157;42.566;27.526;2023-10-31T10:01:21;101065.72;;;24.24;65.69
19508;BME280;40157;42.566;27.526;2023-10-31T10:03:22;101070.97;;;24.27;65.88
19508;BME280;40157;42.566;27.526;2023-10-31T10:05:27;101058.75;;;24.18;66.24
19508;BME280;40157;42.566;27.526;2023-10-31T10:07:28;101070.88;;;24.30;66.73
19508;BME280;40157;42.566;27.526;2023-10-31T10:09:29;101067.84;;;24.39;66.57
19508;BME280;40157;42.566;27.526;2023-10-31T10:11:31;101055.00;;;24.49;66.14
19508;BME280;40157;42.566;27.526;2023-10-31T10:13:32;101041.34;;;24.56;65.74
19508;BME280;40157;42.566;27.526;2023-10-31T10:15:49;101048.81;;;24.72;65.30
19508;BME280;40157;42.566;27.526;2023-10-31T10:17:52;101037.00;;;24.76;65.12
19508;BME280;40157;42.566;27.526;2023-10-31T10:20:11;101037.31;;;24.92;64.89
19508;BME280;40157;42.566;27.526;2023-10-31T10:22:12;101013.47;;;24.84;64.29
19508;BME280;40157;42.566;27.526;2023-10-31T10:24:15;101029.31;;;24.90;64.11
19508;BME280;40157;42.566;27.526;2023-10-31T10:26:16;101022.78;;;24.98;64.22
19508;BME280;40157;42.566;27.526;2023-10-31T10:28:16;101031.09;;;25.14;63.68
19508;BME280;40157;42.566;27.526;2023-10-31T10:30:20;101003.75;;;25.04;63.54